sensor_id;sensor_type;location;lat;lon;timestamp;temperature;humidity
41720;DHT22;27405;53.316;-6.294;2022-08-18T00:00:43;17.50;71.00
41720;DHT22;27405;53.316;-6.294;2022-08-18T00:03:10;17.40;71.00
41720;DHT22;27405;53.316;-6.294;2022-08-18T00:05:36;17.50;71.20
41720;DHT22;27405;53.316;-6.294;2022-08-18T00:08:03;17.50;71.30
41720;DHT22;27405;53.316;-6.294;2022-08-18T00:10:30;17.50;71.40
41720;DHT22;27405;53.316;-6.294;2022-08-18T00:12:56;17.50;72.20
41720;DHT22;27405;53.316;-6.294;2022-08-18T00:15:23;17.40;71.60
41720;DHT22;27405;53.316;-6.294;2022-08-18T00:17:49;17.40;71.80
41720;DHT22;27405;53.316;-6.294;2022-08-18T00:20:22;17.50;72.00
41720;DHT22;27405;53.316;-6.294;2022-08-18T00:22:49;17.50;72.30
41720;DHT22;27405;53.316;-6.294;2022-08-18T00:25:17;17.50;72.30
41720;DHT22;27405;53.316;-6.294;2022-08-18T00:27:44;17.50;72.40
41720;DHT22;27405;53.316;-6.294;2022-08-18T00:30:13;17.50;72.40
41720;DHT22;27405;53.316;-6.294;2022-08-18T00:32:52;17.50;72.50
41720;DHT22;27405;53.316;-6.294;2022-08-18T00:35:30;17.50;72.60
41720;DHT22;27405;53.316;-6.294;2022-08-18T00:41:19;17.50;72.60
41720;DHT22;27405;53.316;-6.294;2022-08-18T00:47:47;17.40;72.80
41720;DHT22;27405;53.316;-6.294;2022-08-18T00:50:22;17.40;72.90
41720;DHT22;27405;53.316;-6.294;2022-08-18T00:52:55;17.40;73.20
41720;DHT22;27405;53.316;-6.294;2022-08-18T00:55:24;17.40;73.40
41720;DHT22;27405;53.316;-6.294;2022-08-18T00:57:51;17.40;73.50
41720;DHT22;27405;53.316;-6.294;2022-08-18T01:00:19;17.40;73.80
41720;DHT22;27405;53.316;-6.294;2022-08-18T01:02:54;17.40;73.90
41720;DHT22;27405;53.316;-6.294;2022-08-18T01:05:26;17.40;74.00
41720;DHT22;27405;53.316;-6.294;2022-08-18T01:07:55;17.30;73.90
41720;DHT22;27405;53.316;-6.294;2022-08-18T01:10:22;17.30;73.90
41720;DHT22;27405;53.316;-6.294;2022-08-18T01:12:54;17.30;73.90
41720;DHT22;27405;53.316;-6.294;2022-08-18T01:15:21;17.30;74.00
41720;DHT22;27405;53.316;-6.294;2022-08-18T01:17:48;17.30;74.00
41720;DHT22;27405;53.316;-6.294;2022-08-18T01:23:28;17.20;74.00
41720;DHT22;27405;53.316;-6.294;2022-08-18T01:25:56;17.20;73.90
41720;DHT22;27405;53.316;-6.294;2022-08-18T01:28:29;17.20;73.80
41720;DHT22;27405;53.316;-6.294;2022-08-18T01:30:56;17.30;73.80
41720;DHT22;27405;53.316;-6.294;2022-08-18T01:33:25;17.30;73.60
41720;DHT22;27405;53.316;-6.294;2022-08-18T01:35:51;17.20;73.30
41720;DHT22;27405;53.316;-6.294;2022-08-18T01:38:19;17.30;73.30
41720;DHT22;27405;53.316;-6.294;2022-08-18T01:40:47;17.30;73.00
41720;DHT22;27405;53.316;-6.294;2022-08-18T01:43:14;17.30;72.80
41720;DHT22;27405;53.316;-6.294;2022-08-18T01:45:40;17.30;72.60
41720;DHT22;27405;53.316;-6.294;2022-08-18T01:48:07;17.30;72.60
41720;DHT22;27405;53.316;-6.294;2022-08-18T01:50:35;17.30;72.40
41720;DHT22;27405;53.316;-6.294;2022-08-18T01:53:03;17.30;72.10
41720;DHT22;27405;53.316;-6.294;2022-08-18T01:55:32;17.30;72.00
41720;DHT22;27405;53.316;-6.294;2022-08-18T01:57:58;17.30;71.80
41720;DHT22;27405;53.316;-6.294;2022-08-18T02:00:26;17.30;71.80
41720;DHT22;27405;53.316;-6.294;2022-08-18T02:02:52;17.30;71.70
41720;DHT22;27405;53.316;-6.294;2022-08-18T02:05:23;17.30;71.60
41720;DHT22;27405;53.316;-6.294;2022-08-18T02:07:52;17.20;71.40
41720;DHT22;27405;53.316;-6.294;2022-08-18T02:10:18;17.20;71.30
41720;DHT22;27405;53.316;-6.294;2022-08-18T02:12:44;17.20;71.20
41720;DHT22;27405;53.316;-6.294;2022-08-18T02:15:11;17.20;71.10
41720;DHT22;27405;53.316;-6.294;2022-08-18T02:17:41;17.10;70.80
41720;DHT22;27405;53.316;-6.294;2022-08-18T02:20:09;17.10;70.50
41720;DHT22;27405;53.316;-6.294;2022-08-18T02:22:36;17.20;70.40
41720;DHT22;27405;53.316;-6.294;2022-08-18T02:28:23;17.20;70.10
41720;DHT22;27405;53.316;-6.294;2022-08-18T02:30:49;17.10;70.00
41720;DHT22;27405;53.316;-6.294;2022-08-18T02:33:15;17.10;70.00
41720;DHT22;27405;53.316;-6.294;2022-08-18T02:35:41;17.10;70.00
41720;DHT22;27405;53.316;-6.294;2022-08-18T02:38:09;17.00;69.90
41720;DHT22;27405;53.316;-6.294;2022-08-18T02:40:35;17.00;69.90
41720;DHT22;27405;53.316;-6.294;2022-08-18T02:43:08;16.90;69.80
41720;DHT22;27405;53.316;-6.294;2022-08-18T02:45:36;16.90;69.90
41720;DHT22;27405;53.316;-6.294;2022-08-18T02:48:02;16.90;69.90
41720;DHT22;27405;53.316;-6.294;2022-08-18T02:50:28;16.80;69.90
41720;DHT22;27405;53.316;-6.294;2022-08-18T02:52:55;16.80;69.90
41720;DHT22;27405;53.316;-6.294;2022-08-18T02:55:22;16.80;69.80
41720;DHT22;27405;53.316;-6.294;2022-08-18T02:57:51;16.70;69.70
41720;DHT22;27405;53.316;-6.294;2022-08-18T03:00:17;16.70;69.70
41720;DHT22;27405;53.316;-6.294;2022-08-18T03:02:50;16.70;69.60
41720;DHT22;27405;53.316;-6.294;2022-08-18T03:05:19;16.60;69.50
41720;DHT22;27405;53.316;-6.294;2022-08-18T03:07:45;16.60;69.40
41720;DHT22;27405;53.316;-6.294;2022-08-18T03:10:11;16.60;69.40
41720;DHT22;27405;53.316;-6.294;2022-08-18T03:12:42;16.60;69.40
41720;DHT22;27405;53.316;-6.294;2022-08-18T03:15:08;16.60;69.50
41720;DHT22;27405;53.316;-6.294;2022-08-18T03:17:36;16.60;69.60
41720;DHT22;27405;53.316;-6.294;2022-08-18T03:20:03;16.60;69.70
41720;DHT22;27405;53.316;-6.294;2022-08-18T03:22:30;16.60;69.90
41720;DHT22;27405;53.316;-6.294;2022-08-18T03:24:56;16.60;69.90
41720;DHT22;27405;53.316;-6.294;2022-08-18T03:27:23;16.60;70.00
41720;DHT22;27405;53.316;-6.294;2022-08-18T03:29:49;16.60;70.80
41720;DHT22;27405;53.316;-6.294;2022-08-18T03:32:16;16.60;70.20
41720;DHT22;27405;53.316;-6.294;2022-08-18T03:34:42;16.60;70.50
41720;DHT22;27405;53.316;-6.294;2022-08-18T03:37:08;16.60;70.70
41720;DHT22;27405;53.316;-6.294;2022-08-18T03:39:35;16.60;71.00
41720;DHT22;27405;53.316;-6.294;2022-08-18T03:42:01;16.60;71.30
41720;DHT22;27405;53.316;-6.294;2022-08-18T03:44:33;16.60;71.70
41720;DHT22;27405;53.316;-6.294;2022-08-18T03:47:03;16.70;72.30
41720;DHT22;27405;53.316;-6.294;2022-08-18T03:49:30;16.70;72.40
41720;DHT22;27405;53.316;-6.294;2022-08-18T03:51:57;16.70;72.70
41720;DHT22;27405;53.316;-6.294;2022-08-18T03:54:25;16.60;72.40
41720;DHT22;27405;53.316;-6.294;2022-08-18T03:56:52;16.70;72.80
41720;DHT22;27405;53.316;-6.294;2022-08-18T03:59:22;16.60;73.20
41720;DHT22;27405;53.316;-6.294;2022-08-18T04:01:50;16.70;73.50
41720;DHT22;27405;53.316;-6.294;2022-08-18T04:04:21;16.60;73.70
41720;DHT22;27405;53.316;-6.294;2022-08-18T04:06:53;16.70;74.00
41720;DHT22;27405;53.316;-6.294;2022-08-18T04:09:20;16.70;74.00
41720;DHT22;27405;53.316;-6.294;2022-08-18T04:11:47;16.60;74.00
41720;DHT22;27405;53.316;-6.294;2022-08-18T04:14:19;16.70;74.10
41720;DHT22;27405;53.316;-6.294;2022-08-18T04:16:46;16.60;74.20
41720;DHT22;27405;53.316;-6.294;2022-08-18T04:19:14;16.70;74.30
41720;DHT22;27405;53.316;-6.294;2022-08-18T04:21:42;16.60;74.40
41720;DHT22;27405;53.316;-6.294;2022-08-18T04:24:10;16.70;74.60
41720;DHT22;27405;53.316;-6.294;2022-08-18T04:26:40;16.70;74.60
41720;DHT22;27405;53.316;-6.294;2022-08-18T04:29:09;16.70;74.50
41720;DHT22;27405;53.316;-6.294;2022-08-18T04:31:35;16.70;74.50
41720;DHT22;27405;53.316;-6.294;2022-08-18T04:34:02;16.70;74.60
41720;DHT22;27405;53.316;-6.294;2022-08-18T04:36:30;16.70;74.70
41720;DHT22;27405;53.316;-6.294;2022-08-18T04:38:57;16.60;74.80
41720;DHT22;27405;53.316;-6.294;2022-08-18T04:41:26;16.60;75.00
41720;DHT22;27405;53.316;-6.294;2022-08-18T04:43:54;16.70;75.20
41720;DHT22;27405;53.316;-6.294;2022-08-18T04:46:22;16.70;75.40
41720;DHT22;27405;53.316;-6.294;2022-08-18T04:48:48;16.70;75.50
41720;DHT22;27405;53.316;-6.294;2022-08-18T04:51:16;16.70;75.60
41720;DHT22;27405;53.316;-6.294;2022-08-18T04:53:43;16.70;75.80
41720;DHT22;27405;53.316;-6.294;2022-08-18T04:56:25;16.70;75.40
41720;DHT22;27405;53.316;-6.294;2022-08-18T04:59:12;16.60;75.80
41720;DHT22;27405;53.316;-6.294;2022-08-18T05:01:44;16.60;76.20
41720;DHT22;27405;53.316;-6.294;2022-08-18T05:04:13;16.60;76.50
41720;DHT22;27405;53.316;-6.294;2022-08-18T05:06:40;16.60;76.60
41720;DHT22;27405;53.316;-6.294;2022-08-18T05:09:08;16.60;76.80
41720;DHT22;27405;53.316;-6.294;2022-08-18T05:11:36;16.60;77.00
41720;DHT22;27405;53.316;-6.294;2022-08-18T05:14:05;16.60;77.30
41720;DHT22;27405;53.316;-6.294;2022-08-18T05:16:32;16.60;77.40
41720;DHT22;27405;53.316;-6.294;2022-08-18T05:19:00;16.60;78.10
41720;DHT22;27405;53.316;-6.294;2022-08-18T05:21:29;16.60;77.10
41720;DHT22;27405;53.316;-6.294;2022-08-18T05:23:55;16.60;77.40
41720;DHT22;27405;53.316;-6.294;2022-08-18T05:26:22;16.60;77.70
41720;DHT22;27405;53.316;-6.294;2022-08-18T05:28:48;16.60;78.10
41720;DHT22;27405;53.316;-6.294;2022-08-18T05:31:18;16.60;78.30
41720;DHT22;27405;53.316;-6.294;2022-08-18T05:33:45;16.50;78.50
41720;DHT22;27405;53.316;-6.294;2022-08-18T05:44:20;16.60;79.10
41720;DHT22;27405;53.316;-6.294;2022-08-18T05:49:18;16.70;79.40
41720;DHT22;27405;53.316;-6.294;2022-08-18T05:51:54;16.70;79.50
41720;DHT22;27405;53.316;-6.294;2022-08-18T05:54:22;16.70;79.80
41720;DHT22;27405;53.316;-6.294;2022-08-18T05:57:16;16.70;79.90
41720;DHT22;27405;53.316;-6.294;2022-08-18T05:59:44;16.60;80.10
41720;DHT22;27405;53.316;-6.294;2022-08-18T06:04:54;16.70;80.60
41720;DHT22;27405;53.316;-6.294;2022-08-18T06:10:04;16.70;80.70
41720;DHT22;27405;53.316;-6.294;2022-08-18T06:12:35;16.70;80.70
41720;DHT22;27405;53.316;-6.294;2022-08-18T06:15:31;16.70;80.20
41720;DHT22;27405;53.316;-6.294;2022-08-18T06:23:53;16.80;81.00
41720;DHT22;27405;53.316;-6.294;2022-08-18T06:26:41;16.80;81.10
41720;DHT22;27405;53.316;-6.294;2022-08-18T06:38:02;17.00;81.60
41720;DHT22;27405;53.316;-6.294;2022-08-18T06:40:50;17.00;81.60
41720;DHT22;27405;53.316;-6.294;2022-08-18T06:43:26;17.10;81.50
41720;DHT22;27405;53.316;-6.294;2022-08-18T06:45:53;17.10;81.60
41720;DHT22;27405;53.316;-6.294;2022-08-18T06:51:03;17.20;81.70
41720;DHT22;27405;53.316;-6.294;2022-08-18T06:54:06;17.30;81.70
41720;DHT22;27405;53.316;-6.294;2022-08-18T06:56:46;17.30;81.70
41720;DHT22;27405;53.316;-6.294;2022-08-18T06:59:31;17.40;81.70
41720;DHT22;27405;53.316;-6.294;2022-08-18T07:02:19;17.40;81.60
41720;DHT22;27405;53.316;-6.294;2022-08-18T07:05:05;17.40;81.50
41720;DHT22;27405;53.316;-6.294;2022-08-18T07:07:40;17.40;81.60
41720;DHT22;27405;53.316;-6.294;2022-08-18T07:10:28;17.50;81.90
41720;DHT22;27405;53.316;-6.294;2022-08-18T07:13:27;17.60;82.00
41720;DHT22;27405;53.316;-6.294;2022-08-18T07:16:13;17.70;81.90
41720;DHT22;27405;53.316;-6.294;2022-08-18T07:18:40;17.90;81.90
41720;DHT22;27405;53.316;-6.294;2022-08-18T07:21:08;18.10;81.70
41720;DHT22;27405;53.316;-6.294;2022-08-18T07:23:38;18.20;81.30
41720;DHT22;27405;53.316;-6.294;2022-08-18T07:26:25;18.30;81.00
41720;DHT22;27405;53.316;-6.294;2022-08-18T07:28:51;18.40;80.70
41720;DHT22;27405;53.316;-6.294;2022-08-18T07:34:16;18.50;80.40
41720;DHT22;27405;53.316;-6.294;2022-08-18T07:36:58;18.50;80.40
41720;DHT22;27405;53.316;-6.294;2022-08-18T07:42:32;18.60;80.40
41720;DHT22;27405;53.316;-6.294;2022-08-18T07:48:49;18.60;80.30
41720;DHT22;27405;53.316;-6.294;2022-08-18T07:51:23;18.60;80.30
41720;DHT22;27405;53.316;-6.294;2022-08-18T07:54:00;18.60;80.50
41720;DHT22;27405;53.316;-6.294;2022-08-18T07:56:58;18.60;80.60
41720;DHT22;27405;53.316;-6.294;2022-08-18T07:59:48;18.60;80.60
41720;DHT22;27405;53.316;-6.294;2022-08-18T08:02:34;18.60;80.70
41720;DHT22;27405;53.316;-6.294;2022-08-18T08:07:53;18.70;80.60
41720;DHT22;27405;53.316;-6.294;2022-08-18T08:21:19;18.90;80.50
41720;DHT22;27405;53.316;-6.294;2022-08-18T08:26:44;18.90;80.60
41720;DHT22;27405;53.316;-6.294;2022-08-18T08:32:05;18.90;80.50
41720;DHT22;27405;53.316;-6.294;2022-08-18T08:37:13;19.00;80.90
41720;DHT22;27405;53.316;-6.294;2022-08-18T08:40:05;19.10;80.80
41720;DHT22;27405;53.316;-6.294;2022-08-18T08:42:59;19.20;80.70
41720;DHT22;27405;53.316;-6.294;2022-08-18T08:45:37;19.20;80.50
41720;DHT22;27405;53.316;-6.294;2022-08-18T08:50:44;19.30;80.60
41720;DHT22;27405;53.316;-6.294;2022-08-18T08:55:55;19.50;80.40
41720;DHT22;27405;53.316;-6.294;2022-08-18T08:58:39;19.50;80.20
41720;DHT22;27405;53.316;-6.294;2022-08-18T09:01:29;19.60;79.90
41720;DHT22;27405;53.316;-6.294;2022-08-18T09:15:43;19.90;79.10
41720;DHT22;27405;53.316;-6.294;2022-08-18T09:18:40;20.00;79.00
41720;DHT22;27405;53.316;-6.294;2022-08-18T09:24:18;20.10;78.70
41720;DHT22;27405;53.316;-6.294;2022-08-18T09:30:01;20.10;78.80
41720;DHT22;27405;53.316;-6.294;2022-08-18T09:32:40;20.20;78.60
41720;DHT22;27405;53.316;-6.294;2022-08-18T09:35:29;20.30;78.30
41720;DHT22;27405;53.316;-6.294;2022-08-18T09:38:14;20.50;78.20
41720;DHT22;27405;53.316;-6.294;2022-08-18T09:41:26;20.60;77.70
41720;DHT22;27405;53.316;-6.294;2022-08-18T09:44:06;20.80;77.30
41720;DHT22;27405;53.316;-6.294;2022-08-18T09:51:56;21.00;76.40
41720;DHT22;27405;53.316;-6.294;2022-08-18T09:54:32;21.10;76.30
41720;DHT22;27405;53.316;-6.294;2022-08-18T09:57:20;21.10;76.40
41720;DHT22;27405;53.316;-6.294;2022-08-18T10:10:55;21.40;75.10
41720;DHT22;27405;53.316;-6.294;2022-08-18T10:19:31;21.50;74.90
41720;DHT22;27405;53.316;-6.294;2022-08-18T10:22:00;21.60;74.70
41720;DHT22;27405;53.316;-6.294;2022-08-18T10:27:53;21.80;74.40
41720;DHT22;27405;53.316;-6.294;2022-08-18T10:30:44;21.80;74.20
41720;DHT22;27405;53.316;-6.294;2022-08-18T10:33:11;21.90;74.00
41720;DHT22;27405;53.316;-6.294;2022-08-18T10:36:00;22.00;73.90
41720;DHT22;27405;53.316;-6.294;2022-08-18T10:38:44;22.10;73.50
41720;DHT22;27405;53.316;-6.294;2022-08-18T10:41:23;22.20;73.20
41720;DHT22;27405;53.316;-6.294;2022-08-18T10:43:52;22.30;72.80
41720;DHT22;27405;53.316;-6.294;2022-08-18T10:46:27;22.40;72.80
41720;DHT22;27405;53.316;-6.294;2022-08-18T10:49:00;22.50;72.60
41720;DHT22;27405;53.316;-6.294;2022-08-18T10:57:27;22.70;71.90
41720;DHT22;27405;53.316;-6.294;2022-08-18T11:00:17;22.80;71.70
41720;DHT22;27405;53.316;-6.294;2022-08-18T11:05:34;22.70;71.50
41720;DHT22;27405;53.316;-6.294;2022-08-18T11:08:03;22.80;71.50
41720;DHT22;27405;53.316;-6.294;2022-08-18T11:10:41;22.70;71.40
41720;DHT22;27405;53.316;-6.294;2022-08-18T11:13:25;22.70;71.70
41720;DHT22;27405;53.316;-6.294;2022-08-18T11:18:50;22.40;72.50
41720;DHT22;27405;53.316;-6.294;2022-08-18T11:21:41;22.40;72.60
41720;DHT22;27405;53.316;-6.294;2022-08-18T11:24:15;22.40;72.70
41720;DHT22;27405;53.316;-6.294;2022-08-18T11:26:55;22.50;72.60
41720;DHT22;27405;53.316;-6.294;2022-08-18T11:29:28;22.60;72.50
41720;DHT22;27405;53.316;-6.294;2022-08-18T11:32:08;22.50;72.30
41720;DHT22;27405;53.316;-6.294;2022-08-18T11:39:57;22.40;73.50
41720;DHT22;27405;53.316;-6.294;2022-08-18T11:42:37;22.30;73.00
41720;DHT22;27405;53.316;-6.294;2022-08-18T11:45:17;22.20;73.40
41720;DHT22;27405;53.316;-6.294;2022-08-18T12:03:58;22.70;73.50
41720;DHT22;27405;53.316;-6.294;2022-08-18T12:06:32;22.80;73.20
41720;DHT22;27405;53.316;-6.294;2022-08-18T12:09:11;22.80;72.80
41720;DHT22;27405;53.316;-6.294;2022-08-18T12:11:55;22.80;72.90
41720;DHT22;27405;53.316;-6.294;2022-08-18T12:14:25;22.70;72.90
41720;DHT22;27405;53.316;-6.294;2022-08-18T12:16:52;22.60;73.90
41720;DHT22;27405;53.316;-6.294;2022-08-18T12:19:19;22.50;73.40
41720;DHT22;27405;53.316;-6.294;2022-08-18T12:21:56;22.40;73.50
41720;DHT22;27405;53.316;-6.294;2022-08-18T12:24:26;22.40;74.00
41720;DHT22;27405;53.316;-6.294;2022-08-18T12:26:53;22.30;74.20
41720;DHT22;27405;53.316;-6.294;2022-08-18T12:29:19;22.30;74.50
41720;DHT22;27405;53.316;-6.294;2022-08-18T12:31:47;22.30;74.60
41720;DHT22;27405;53.316;-6.294;2022-08-18T12:34:23;22.40;74.70
41720;DHT22;27405;53.316;-6.294;2022-08-18T12:36:53;22.40;74.70
41720;DHT22;27405;53.316;-6.294;2022-08-18T12:39:19;22.40;75.40
41720;DHT22;27405;53.316;-6.294;2022-08-18T12:41:45;22.40;75.00
41720;DHT22;27405;53.316;-6.294;2022-08-18T12:44:12;22.40;75.00
41720;DHT22;27405;53.316;-6.294;2022-08-18T12:46:38;22.30;75.20
41720;DHT22;27405;53.316;-6.294;2022-08-18T12:49:05;22.40;75.20
41720;DHT22;27405;53.316;-6.294;2022-08-18T12:51:35;22.30;75.30
41720;DHT22;27405;53.316;-6.294;2022-08-18T12:54:01;22.20;75.30
41720;DHT22;27405;53.316;-6.294;2022-08-18T12:56:29;22.20;75.60
41720;DHT22;27405;53.316;-6.294;2022-08-18T12:58:58;22.10;75.70
41720;DHT22;27405;53.316;-6.294;2022-08-18T13:01:25;22.10;76.10
41720;DHT22;27405;53.316;-6.294;2022-08-18T13:03:52;22.10;76.60
41720;DHT22;27405;53.316;-6.294;2022-08-18T13:06:20;22.20;76.70
41720;DHT22;27405;53.316;-6.294;2022-08-18T13:08:48;22.40;76.30
41720;DHT22;27405;53.316;-6.294;2022-08-18T13:11:16;22.60;76.00
41720;DHT22;27405;53.316;-6.294;2022-08-18T13:13:42;22.80;75.80
41720;DHT22;27405;53.316;-6.294;2022-08-18T13:16:10;23.00;75.30
41720;DHT22;27405;53.316;-6.294;2022-08-18T13:18:37;23.20;75.20
41720;DHT22;27405;53.316;-6.294;2022-08-18T13:21:11;23.30;75.20
41720;DHT22;27405;53.316;-6.294;2022-08-18T13:23:38;23.30;75.30
41720;DHT22;27405;53.316;-6.294;2022-08-18T13:26:06;23.30;75.50
41720;DHT22;27405;53.316;-6.294;2022-08-18T13:28:35;23.50;75.70
41720;DHT22;27405;53.316;-6.294;2022-08-18T13:31:02;23.60;75.30
41720;DHT22;27405;53.316;-6.294;2022-08-18T13:33:28;23.60;75.40
41720;DHT22;27405;53.316;-6.294;2022-08-18T13:35:54;23.80;75.30
41720;DHT22;27405;53.316;-6.294;2022-08-18T13:38:21;24.00;74.60
41720;DHT22;27405;53.316;-6.294;2022-08-18T13:40:52;24.10;74.30
41720;DHT22;27405;53.316;-6.294;2022-08-18T13:43:21;24.30;73.80
41720;DHT22;27405;53.316;-6.294;2022-08-18T13:45:50;24.30;73.40
41720;DHT22;27405;53.316;-6.294;2022-08-18T13:48:16;24.40;73.00
41720;DHT22;27405;53.316;-6.294;2022-08-18T13:50:43;24.40;72.60
41720;DHT22;27405;53.316;-6.294;2022-08-18T13:53:14;24.40;72.40
41720;DHT22;27405;53.316;-6.294;2022-08-18T13:55:41;24.40;72.30
41720;DHT22;27405;53.316;-6.294;2022-08-18T13:58:07;24.40;72.50
41720;DHT22;27405;53.316;-6.294;2022-08-18T14:00:34;24.60;72.10
41720;DHT22;27405;53.316;-6.294;2022-08-18T14:03:00;24.70;71.20
41720;DHT22;27405;53.316;-6.294;2022-08-18T14:05:26;24.70;70.50
41720;DHT22;27405;53.316;-6.294;2022-08-18T14:07:53;24.70;70.70
41720;DHT22;27405;53.316;-6.294;2022-08-18T14:10:19;24.70;70.90
41720;DHT22;27405;53.316;-6.294;2022-08-18T14:12:46;24.70;70.90
41720;DHT22;27405;53.316;-6.294;2022-08-18T14:15:14;24.80;70.60
41720;DHT22;27405;53.316;-6.294;2022-08-18T14:17:41;24.90;70.30
41720;DHT22;27405;53.316;-6.294;2022-08-18T14:20:08;24.90;70.40
41720;DHT22;27405;53.316;-6.294;2022-08-18T14:22:57;24.80;70.20
41720;DHT22;27405;53.316;-6.294;2022-08-18T14:25:42;24.70;70.00
41720;DHT22;27405;53.316;-6.294;2022-08-18T14:28:28;24.50;70.30
41720;DHT22;27405;53.316;-6.294;2022-08-18T14:30:58;24.20;71.50
41720;DHT22;27405;53.316;-6.294;2022-08-18T14:33:27;24.00;72.70
41720;DHT22;27405;53.316;-6.294;2022-08-18T14:35:54;23.80;74.30
41720;DHT22;27405;53.316;-6.294;2022-08-18T14:38:20;23.70;75.40
41720;DHT22;27405;53.316;-6.294;2022-08-18T14:40:46;23.50;75.80
41720;DHT22;27405;53.316;-6.294;2022-08-18T14:43:15;23.50;76.70
41720;DHT22;27405;53.316;-6.294;2022-08-18T14:45:43;23.50;77.10
41720;DHT22;27405;53.316;-6.294;2022-08-18T14:48:14;23.70;77.70
41720;DHT22;27405;53.316;-6.294;2022-08-18T14:50:41;24.30;76.90
41720;DHT22;27405;53.316;-6.294;2022-08-18T14:53:08;24.80;74.70
41720;DHT22;27405;53.316;-6.294;2022-08-18T14:55:35;25.20;72.80
41720;DHT22;27405;53.316;-6.294;2022-08-18T14:58:02;25.30;71.30
41720;DHT22;27405;53.316;-6.294;2022-08-18T15:00:29;25.30;71.30
41720;DHT22;27405;53.316;-6.294;2022-08-18T15:02:56;25.50;70.80
41720;DHT22;27405;53.316;-6.294;2022-08-18T15:05:23;25.90;69.70
41720;DHT22;27405;53.316;-6.294;2022-08-18T15:07:49;25.90;68.00
41720;DHT22;27405;53.316;-6.294;2022-08-18T15:10:15;25.70;67.40
41720;DHT22;27405;53.316;-6.294;2022-08-18T15:12:42;25.20;67.80
41720;DHT22;27405;53.316;-6.294;2022-08-18T15:15:10;24.80;69.40
41720;DHT22;27405;53.316;-6.294;2022-08-18T15:17:40;24.80;70.80
41720;DHT22;27405;53.316;-6.294;2022-08-18T15:20:08;25.00;69.20
41720;DHT22;27405;53.316;-6.294;2022-08-18T15:22:44;25.10;68.50
41720;DHT22;27405;53.316;-6.294;2022-08-18T15:25:29;25.20;67.50
41720;DHT22;27405;53.316;-6.294;2022-08-18T15:28:11;25.30;66.70
41720;DHT22;27405;53.316;-6.294;2022-08-18T15:30:38;25.30;65.90
41720;DHT22;27405;53.316;-6.294;2022-08-18T15:33:04;25.30;65.90
41720;DHT22;27405;53.316;-6.294;2022-08-18T15:35:31;25.40;65.70
41720;DHT22;27405;53.316;-6.294;2022-08-18T15:37:57;25.30;65.30
41720;DHT22;27405;53.316;-6.294;2022-08-18T15:40:26;25.30;65.40
41720;DHT22;27405;53.316;-6.294;2022-08-18T15:42:55;25.30;65.40
41720;DHT22;27405;53.316;-6.294;2022-08-18T15:45:24;25.40;64.80
41720;DHT22;27405;53.316;-6.294;2022-08-18T15:47:51;25.60;63.10
41720;DHT22;27405;53.316;-6.294;2022-08-18T15:50:17;25.60;61.80
41720;DHT22;27405;53.316;-6.294;2022-08-18T15:52:53;25.70;61.50
41720;DHT22;27405;53.316;-6.294;2022-08-18T15:55:21;25.70;61.10
41720;DHT22;27405;53.316;-6.294;2022-08-18T15:57:48;25.60;61.30
41720;DHT22;27405;53.316;-6.294;2022-08-18T16:00:16;25.50;61.60
41720;DHT22;27405;53.316;-6.294;2022-08-18T16:02:50;25.40;61.70
41720;DHT22;27405;53.316;-6.294;2022-08-18T16:05:19;25.40;62.20
41720;DHT22;27405;53.316;-6.294;2022-08-18T16:07:48;25.30;61.60
41720;DHT22;27405;53.316;-6.294;2022-08-18T16:10:17;25.20;61.70
41720;DHT22;27405;53.316;-6.294;2022-08-18T16:12:43;25.00;62.10
41720;DHT22;27405;53.316;-6.294;2022-08-18T16:15:09;25.00;62.60
41720;DHT22;27405;53.316;-6.294;2022-08-18T16:17:35;24.90;62.80
41720;DHT22;27405;53.316;-6.294;2022-08-18T16:20:03;24.90;62.60
41720;DHT22;27405;53.316;-6.294;2022-08-18T16:22:29;24.70;62.70
41720;DHT22;27405;53.316;-6.294;2022-08-18T16:28:19;24.50;63.60
41720;DHT22;27405;53.316;-6.294;2022-08-18T16:30:45;24.40;62.90
41720;DHT22;27405;53.316;-6.294;2022-08-18T16:33:12;24.30;62.20
41720;DHT22;27405;53.316;-6.294;2022-08-18T16:35:38;24.20;61.80
41720;DHT22;27405;53.316;-6.294;2022-08-18T16:38:06;24.30;61.20
41720;DHT22;27405;53.316;-6.294;2022-08-18T16:40:33;24.40;60.50
41720;DHT22;27405;53.316;-6.294;2022-08-18T16:42:59;24.60;59.80
41720;DHT22;27405;53.316;-6.294;2022-08-18T16:45:26;24.70;58.90
41720;DHT22;27405;53.316;-6.294;2022-08-18T16:47:53;24.90;58.10
41720;DHT22;27405;53.316;-6.294;2022-08-18T16:50:19;25.10;57.10
41720;DHT22;27405;53.316;-6.294;2022-08-18T16:52:45;25.10;56.30
41720;DHT22;27405;53.316;-6.294;2022-08-18T16:55:11;25.00;56.10
41720;DHT22;27405;53.316;-6.294;2022-08-18T16:57:39;24.80;55.80
41720;DHT22;27405;53.316;-6.294;2022-08-18T17:00:25;24.70;55.90
41720;DHT22;27405;53.316;-6.294;2022-08-18T17:03:10;24.50;56.10
41720;DHT22;27405;53.316;-6.294;2022-08-18T17:06:03;24.40;56.50
41720;DHT22;27405;53.316;-6.294;2022-08-18T17:08:30;24.30;56.30
41720;DHT22;27405;53.316;-6.294;2022-08-18T17:11:08;24.20;55.80
41720;DHT22;27405;53.316;-6.294;2022-08-18T17:13:35;24.10;54.80
41720;DHT22;27405;53.316;-6.294;2022-08-18T17:16:01;24.10;54.90
41720;DHT22;27405;53.316;-6.294;2022-08-18T17:18:28;24.10;54.60
41720;DHT22;27405;53.316;-6.294;2022-08-18T17:20:55;23.90;54.10
41720;DHT22;27405;53.316;-6.294;2022-08-18T17:23:22;23.80;53.40
41720;DHT22;27405;53.316;-6.294;2022-08-18T17:25:48;23.60;53.20
41720;DHT22;27405;53.316;-6.294;2022-08-18T17:28:17;23.40;53.10
41720;DHT22;27405;53.316;-6.294;2022-08-18T17:30:48;23.30;52.90
41720;DHT22;27405;53.316;-6.294;2022-08-18T17:33:15;23.10;53.30
41720;DHT22;27405;53.316;-6.294;2022-08-18T17:35:45;23.00;54.50
41720;DHT22;27405;53.316;-6.294;2022-08-18T17:38:15;22.90;53.80
41720;DHT22;27405;53.316;-6.294;2022-08-18T17:40:49;22.80;53.70
41720;DHT22;27405;53.316;-6.294;2022-08-18T17:43:24;22.60;53.80
41720;DHT22;27405;53.316;-6.294;2022-08-18T17:46:08;22.60;54.00
41720;DHT22;27405;53.316;-6.294;2022-08-18T17:48:45;22.50;53.70
41720;DHT22;27405;53.316;-6.294;2022-08-18T17:51:21;22.40;54.00
41720;DHT22;27405;53.316;-6.294;2022-08-18T17:54:19;22.40;54.10
41720;DHT22;27405;53.316;-6.294;2022-08-18T17:56:48;22.30;54.30
41720;DHT22;27405;53.316;-6.294;2022-08-18T17:59:28;22.20;54.30
41720;DHT22;27405;53.316;-6.294;2022-08-18T18:02:11;22.20;54.30
41720;DHT22;27405;53.316;-6.294;2022-08-18T18:04:42;22.20;54.50
41720;DHT22;27405;53.316;-6.294;2022-08-18T18:07:23;22.10;54.10
41720;DHT22;27405;53.316;-6.294;2022-08-18T18:10:00;22.00;54.50
41720;DHT22;27405;53.316;-6.294;2022-08-18T18:12:28;22.00;54.00
41720;DHT22;27405;53.316;-6.294;2022-08-18T18:14:56;21.80;54.70
41720;DHT22;27405;53.316;-6.294;2022-08-18T18:17:26;21.70;54.10
41720;DHT22;27405;53.316;-6.294;2022-08-18T18:20:13;21.70;53.80
41720;DHT22;27405;53.316;-6.294;2022-08-18T18:22:41;21.60;53.90
41720;DHT22;27405;53.316;-6.294;2022-08-18T18:25:10;21.40;53.50